Time;durP1;ratioP1;P1;durP2;ratioP2;P2;SDS_P1;SDS_P2;PMS_P1;PMS_P2;Temp;Humidity;BMP_temperature;BMP_pressure;BME280_temperature;BME280_humidity;BME280_pressure;Samples;Min_cycle;Max_cycle;Signal;HPM_P1;HPM_P2
2022/10/18 03:02:34;;;;;;;;;;;21.80;54.00;;;;;;4927591;23;46362;-65
2022/10/18 03:04:59;;;;;;;;;;;21.80;54.00;;;;;;4909606;28;45406;-67
2022/10/18 03:07:25;;;;;;;;;;;21.80;54.00;;;;;;4895861;28;45295;-64
2022/10/18 03:09:50;;;;;;;;;;;21.80;54.00;;;;;;4913285;28;45590;-65
2022/10/18 03:12:16;;;;;;;;;;;21.80;54.00;;;;;;4911283;28;45632;-65
2022/10/18 03:14:41;;;;;;;;;;;21.80;54.00;;;;;;4908377;28;45802;-65
2022/10/18 03:17:07;;;;;;;;;;;21.80;54.00;;;;;;4912974;28;45728;-67
2022/10/18 03:19:32;;;;;;;;;;;21.80;54.00;;;;;;4880592;28;45353;-64
2022/10/18 03:21:58;;;;;;;;;;;21.70;53.90;;;;;;4896430;28;45390;-63
2022/10/18 03:24:23;;;;;;;;;;;21.70;53.90;;;;;;4910690;28;45270;-65
2022/10/18 03:26:49;;;;;;;;;;;21.70;54.00;;;;;;4878901;28;44982;-67
2022/10/18 03:29:14;;;;;;;;;;;21.70;54.00;;;;;;4912941;28;44946;-64
2022/10/18 03:31:39;;;;;;;;;;;21.70;53.90;;;;;;4911819;28;45672;-62
2022/10/18 03:34:05;;;;;;;;;;;21.70;53.90;;;;;;4913294;28;46453;-66
2022/10/18 03:36:32;;;;;;;;;;;21.70;53.90;;;;;;4913604;28;45487;-65
2022/10/18 03:38:58;;;;;;;;;;;21.70;53.90;;;;;;4912387;28;45497;-65
2022/10/18 03:41:23;;;;;;;;;;;21.70;53.90;;;;;;4906364;28;45265;-69
2022/10/18 03:43:49;;;;;;;;;;;21.70;53.90;;;;;;4916585;28;45540;-65
2022/10/18 03:46:14;;;;;;;;;;;21.70;53.90;;;;;;4920536;28;45408;-64
2022/10/18 03:48:39;;;;;;;;;;;21.70;53.90;;;;;;4919557;28;45433;-65
2022/10/18 03:51:05;;;;;;;;;;;21.70;53.90;;;;;;4919257;28;45554;-66
2022/10/18 03:53:30;;;;;;;;;;;21.70;53.90;;;;;;4914663;28;46116;-65
2022/10/18 03:55:56;;;;;;;;;;;21.70;53.90;;;;;;4919000;28;45426;-68
2022/10/18 03:58:21;;;;;;;;;;;21.70;53.90;;;;;;4918192;28;45118;-67
2022/10/18 04:00:48;;;;;;;;;;;21.70;53.90;;;;;;4899656;28;45309;-67
2022/10/18 04:03:13;;;;;;;;;;;21.70;53.90;;;;;;4916629;28;45442;-67
2022/10/18 04:05:39;;;;;;;;;;;21.70;53.90;;;;;;4917211;28;44935;-66
2022/10/18 04:08:04;;;;;;;;;;;21.70;53.90;;;;;;4916895;28;45301;-69
2022/10/18 04:10:30;;;;;;;;;;;21.70;53.90;;;;;;4916197;28;46159;-66
2022/10/18 04:12:55;;;;;;;;;;;21.70;53.90;;;;;;4916246;28;45226;-67
2022/10/18 04:15:21;;;;;;;;;;;21.70;53.90;;;;;;4914054;28;45011;-65
2022/10/18 04:17:46;;;;;;;;;;;21.70;53.90;;;;;;4896075;28;44876;-69
2022/10/18 04:20:12;;;;;;;;;;;21.70;53.90;;;;;;4913973;28;45611;-67
2022/10/18 04:22:37;;;;;;;;;;;21.60;53.90;;;;;;4915173;28;45877;-69
2022/10/18 04:25:03;;;;;;;;;;;21.70;53.90;;;;;;4917973;28;45543;-68
2022/10/18 04:27:28;;;;;;;;;;;21.70;53.90;;;;;;4915771;28;44917;-65
2022/10/18 04:29:54;;;;;;;;;;;21.70;53.90;;;;;;4915377;28;45712;-69
2022/10/18 04:32:19;;;;;;;;;;;21.70;53.80;;;;;;4910074;28;46148;-67
2022/10/18 04:34:45;;;;;;;;;;;21.60;53.90;;;;;;4916130;28;45092;-67
2022/10/18 04:37:10;;;;;;;;;;;21.60;53.80;;;;;;4915941;28;45235;-67
2022/10/18 04:39:36;;;;;;;;;;;21.60;53.80;;;;;;4914678;28;45514;-66
2022/10/18 04:42:01;;;;;;;;;;;21.70;53.80;;;;;;4899760;28;45242;-66
2022/10/18 04:44:27;;;;;;;;;;;21.70;53.80;;;;;;4914131;28;45185;-67
2022/10/18 04:46:52;;;;;;;;;;;21.60;53.80;;;;;;4923091;28;45454;-68
2022/10/18 04:49:18;;;;;;;;;;;21.60;53.80;;;;;;4919327;28;45176;-65
2022/10/18 04:51:43;;;;;;;;;;;21.70;53.90;;;;;;4916445;28;45537;-67
2022/10/18 04:54:08;;;;;;;;;;;21.60;53.80;;;;;;4915864;28;45413;-66
2022/10/18 04:56:34;;;;;;;;;;;21.60;53.80;;;;;;4899616;28;45147;-66
2022/10/18 04:58:59;;;;;;;;;;;21.60;53.80;;;;;;4918266;28;45368;-67
2022/10/18 05:01:25;;;;;;;;;;;21.60;53.80;;;;;;4914726;28;45830;-65
2022/10/18 05:03:51;;;;;;;;;;;21.60;53.80;;;;;;4917873;28;45215;-66
2022/10/18 05:06:17;;;;;;;;;;;21.60;53.80;;;;;;4898528;28;44930;-64
2022/10/18 05:08:42;;;;;;;;;;;21.60;53.80;;;;;;4919366;28;45728;-67
2022/10/18 05:11:08;;;;;;;;;;;21.60;53.80;;;;;;4916948;28;45212;-68
2022/10/18 05:13:33;;;;;;;;;;;21.60;53.90;;;;;;4917858;28;45277;-67
2022/10/18 05:15:59;;;;;;;;;;;21.60;53.80;;;;;;4917444;28;45311;-66
2022/10/18 05:18:25;;;;;;;;;;;21.60;53.80;;;;;;4918202;28;45471;-66
2022/10/18 05:20:50;;;;;;;;;;;21.60;53.80;;;;;;4916602;28;45589;-68
2022/10/18 05:23:16;;;;;;;;;;;21.60;53.80;;;;;;4903179;28;45887;-67
2022/10/18 05:25:41;;;;;;;;;;;21.60;53.80;;;;;;4914850;28;45643;-64
2022/10/18 05:28:07;;;;;;;;;;;21.60;53.80;;;;;;4918350;28;45496;-68
2022/10/18 05:30:32;;;;;;;;;;;21.60;53.80;;;;;;4909576;28;45218;-66
2022/10/18 05:32:58;;;;;;;;;;;21.60;53.80;;;;;;4912648;28;44757;-65
2022/10/18 05:35:23;;;;;;;;;;;21.60;53.80;;;;;;4898669;28;45308;-67
2022/10/18 05:37:49;;;;;;;;;;;21.60;53.80;;;;;;4900738;28;45458;-64
2022/10/18 05:40:14;;;;;;;;;;;21.60;53.80;;;;;;4915737;28;45215;-65
2022/10/18 05:42:40;;;;;;;;;;;21.60;53.80;;;;;;4885137;28;45055;-67
2022/10/18 05:45:06;;;;;;;;;;;21.60;53.80;;;;;;4917947;28;45276;-67
2022/10/18 05:47:31;;;;;;;;;;;21.60;53.80;;;;;;4899076;28;45990;-64
2022/10/18 05:49:57;;;;;;;;;;;21.60;53.80;;;;;;4914348;28;46349;-67
2022/10/18 05:52:22;;;;;;;;;;;21.60;53.80;;;;;;4916813;28;44651;-67
2022/10/18 05:54:48;;;;;;;;;;;21.60;53.80;;;;;;4917343;28;45425;-65
2022/10/18 05:57:13;;;;;;;;;;;21.60;53.90;;;;;;4911711;28;45147;-65
2022/10/18 05:59:39;;;;;;;;;;;21.60;53.80;;;;;;4916104;28;46077;-66
2022/10/18 06:02:04;;;;;;;;;;;21.60;53.80;;;;;;4914445;28;45351;-67
2022/10/18 06:04:29;;;;;;;;;;;21.60;53.80;;;;;;4907350;28;45288;-67
2022/10/18 06:06:55;;;;;;;;;;;21.60;53.80;;;;;;4909536;28;45405;-68
2022/10/18 06:09:20;;;;;;;;;;;21.60;53.80;;;;;;4911818;28;45304;-66
2022/10/18 06:11:46;;;;;;;;;;;21.60;53.80;;;;;;4913082;28;45016;-65
2022/10/18 06:14:11;;;;;;;;;;;21.50;53.70;;;;;;4915030;28;45045;-70
2022/10/18 06:16:37;;;;;;;;;;;21.60;53.80;;;;;;4913111;28;45430;-67
2022/10/18 06:19:02;;;;;;;;;;;21.60;53.80;;;;;;4893194;28;48096;-66
2022/10/18 06:21:28;;;;;;;;;;;21.60;53.70;;;;;;4899780;28;45096;-66
2022/10/18 06:23:55;;;;;;;;;;;21.60;53.60;;;;;;4916897;28;45382;-64
2022/10/18 06:26:21;;;;;;;;;;;21.60;53.60;;;;;;4901191;28;45560;-64
2022/10/18 06:28:46;;;;;;;;;;;21.60;53.70;;;;;;4914046;28;45915;-64
2022/10/18 06:31:12;;;;;;;;;;;21.60;53.70;;;;;;4915536;28;45179;-63
2022/10/18 06:33:37;;;;;;;;;;;21.70;53.70;;;;;;4904974;28;45398;-63
2022/10/18 06:36:03;;;;;;;;;;;21.60;53.70;;;;;;4916737;28;45518;-63
2022/10/18 06:38:29;;;;;;;;;;;21.70;53.70;;;;;;4916662;28;46065;-64
2022/10/18 06:40:54;;;;;;;;;;;21.70;53.70;;;;;;4918538;28;45284;-64
2022/10/18 06:43:20;;;;;;;;;;;21.70;53.60;;;;;;4914845;28;45162;-62
2022/10/18 06:45:45;;;;;;;;;;;21.70;53.60;;;;;;4896860;28;45244;-66
2022/10/18 06:48:11;;;;;;;;;;;21.80;53.60;;;;;;4912163;28;45935;-63
2022/10/18 06:50:36;;;;;;;;;;;21.70;53.50;;;;;;4915120;28;45308;-64
2022/10/18 06:53:04;;;;;;;;;;;21.80;53.60;;;;;;4910393;28;45389;-65
2022/10/18 06:55:30;;;;;;;;;;;21.80;53.60;;;;;;4898860;28;45502;-64
2022/10/18 06:57:56;;;;;;;;;;;21.80;53.60;;;;;;4916577;28;45125;-64
2022/10/18 07:00:21;;;;;;;;;;;21.80;53.60;;;;;;4907105;28;45399;-63
2022/10/18 07:02:47;;;;;;;;;;;21.80;53.60;;;;;;4913970;28;45088;-62
2022/10/18 07:05:12;;;;;;;;;;;21.80;53.60;;;;;;4919542;28;45326;-64
2022/10/18 07:07:38;;;;;;;;;;;21.80;53.70;;;;;;4895778;28;45206;-63
2022/10/18 07:10:04;;;;;;;;;;;21.80;53.60;;;;;;4917059;28;45238;-63
2022/10/18 07:12:29;;;;;;;;;;;21.80;53.60;;;;;;4910835;28;45428;-66
2022/10/18 07:14:55;;;;;;;;;;;21.90;53.60;;;;;;4910892;28;45352;-62
2022/10/18 07:17:20;;;;;;;;;;;21.90;53.60;;;;;;4899794;28;46036;-62
2022/10/18 07:19:46;;;;;;;;;;;21.90;53.60;;;;;;4902629;28;44828;-62
2022/10/18 07:22:11;;;;;;;;;;;21.90;53.50;;;;;;4916682;28;44967;-63
2022/10/18 07:24:37;;;;;;;;;;;21.90;53.60;;;;;;4902629;28;45298;-65
2022/10/18 07:27:02;;;;;;;;;;;21.90;53.50;;;;;;4918309;28;45848;-70
2022/10/18 07:29:28;;;;;;;;;;;21.90;53.60;;;;;;4919656;28;45399;-74
2022/10/18 07:31:53;;;;;;;;;;;21.90;53.50;;;;;;4905222;28;45498;-66
2022/10/18 07:34:19;;;;;;;;;;;21.90;53.50;;;;;;4918075;28;45418;-63
2022/10/18 07:36:44;;;;;;;;;;;21.90;53.50;;;;;;4917032;28;45937;-65
2022/10/18 07:39:10;;;;;;;;;;;21.90;53.50;;;;;;4913966;28;45060;-67
2022/10/18 07:41:36;;;;;;;;;;;21.90;53.50;;;;;;4917020;28;45437;-67
2022/10/18 07:44:01;;;;;;;;;;;21.90;53.50;;;;;;4912059;28;45386;-66
2022/10/18 07:46:27;;;;;;;;;;;21.90;53.50;;;;;;4901845;28;46128;-68
2022/10/18 07:48:52;;;;;;;;;;;21.90;53.50;;;;;;4919054;28;45003;-66
2022/10/18 07:51:18;;;;;;;;;;;21.90;53.50;;;;;;4900574;28;45459;-63
2022/10/18 07:53:43;;;;;;;;;;;21.90;53.50;;;;;;4916122;28;45573;-69
2022/10/18 07:56:14;;;;;;;;;;;21.90;53.50;;;;;;4913895;28;47090;-68
2022/10/18 07:58:40;;;;;;;;;;;21.90;53.50;;;;;;4901825;28;45085;-65
2022/10/18 08:01:06;;;;;;;;;;;22.00;53.50;;;;;;4919801;28;44972;-64
2022/10/18 08:03:32;;;;;;;;;;;22.00;53.40;;;;;;4916493;28;45275;-65
2022/10/18 08:05:58;;;;;;;;;;;22.00;53.40;;;;;;4919629;28;46208;-65
2022/10/18 08:08:23;;;;;;;;;;;22.00;53.40;;;;;;4906062;28;45204;-67
2022/10/18 08:10:49;;;;;;;;;;;22.00;53.30;;;;;;4915688;28;45592;-65
2022/10/18 08:13:14;;;;;;;;;;;22.00;53.30;;;;;;4899935;28;45425;-67
2022/10/18 08:15:40;;;;;;;;;;;22.10;53.30;;;;;;4919963;28;45502;-68
2022/10/18 08:18:05;;;;;;;;;;;22.10;53.30;;;;;;4919340;28;45240;-65
2022/10/18 08:20:32;;;;;;;;;;;22.10;53.20;;;;;;4919030;28;45218;-63
2022/10/18 08:22:57;;;;;;;;;;;22.10;53.20;;;;;;4900823;28;45271;-67
2022/10/18 08:25:23;;;;;;;;;;;22.20;53.30;;;;;;4914500;28;45214;-64
2022/10/18 08:27:48;;;;;;;;;;;22.20;53.30;;;;;;4914208;28;45675;-66
2022/10/18 08:30:14;;;;;;;;;;;22.20;53.30;;;;;;4904766;28;45408;-66
2022/10/18 08:32:39;;;;;;;;;;;22.20;53.20;;;;;;4916729;28;45371;-65
2022/10/18 08:35:05;;;;;;;;;;;22.20;53.10;;;;;;4921141;28;45935;-67
2022/10/18 08:37:31;;;;;;;;;;;22.20;53.00;;;;;;4918023;28;45300;-69
2022/10/18 08:39:56;;;;;;;;;;;22.20;53.70;;;;;;4917381;28;45934;-65
2022/10/18 08:42:25;;;;;;;;;;;22.20;53.10;;;;;;4902366;28;45664;-67
2022/10/18 08:44:50;;;;;;;;;;;22.20;53.70;;;;;;4918831;28;45538;-66
2022/10/18 08:47:17;;;;;;;;;;;22.20;53.10;;;;;;4905916;28;44679;-67
2022/10/18 08:49:42;;;;;;;;;;;22.20;53.10;;;;;;4902069;28;45049;-66
2022/10/18 08:52:13;;;;;;;;;;;22.20;53.00;;;;;;4916061;28;45408;-64
2022/10/18 08:54:43;;;;;;;;;;;22.20;53.00;;;;;;4903823;28;46745;-65
2022/10/18 08:57:10;;;;;;;;;;;22.20;53.00;;;;;;4899437;28;46112;-67
2022/10/18 08:59:37;;;;;;;;;;;22.20;53.00;;;;;;4901289;28;44654;-66
2022/10/18 09:02:16;;;;;;;;;;;22.30;53.00;;;;;;4899375;28;45476;-67
2022/10/18 09:04:46;;;;;;;;;;;22.20;53.00;;;;;;4900953;28;46162;-65
2022/10/18 09:07:29;;;;;;;;;;;22.20;52.90;;;;;;4900378;28;45529;-67
2022/10/18 09:09:59;;;;;;;;;;;22.30;52.90;;;;;;4881362;28;45466;-67
2022/10/18 09:12:33;;;;;;;;;;;22.30;52.90;;;;;;4897172;28;45520;-70
2022/10/18 09:15:17;;;;;;;;;;;22.30;52.80;;;;;;4917050;28;45482;-68
2022/10/18 09:17:53;;;;;;;;;;;22.30;52.80;;;;;;4918391;28;44988;-67
2022/10/18 09:20:20;;;;;;;;;;;22.30;52.80;;;;;;4900835;28;45431;-66
2022/10/18 09:22:46;;;;;;;;;;;22.30;52.80;;;;;;4911997;28;45526;-67
2022/10/18 09:25:16;;;;;;;;;;;22.30;52.90;;;;;;4909576;28;46075;-66
2022/10/18 09:28:02;;;;;;;;;;;22.30;52.80;;;;;;4894845;28;45227;-65
2022/10/18 09:30:27;;;;;;;;;;;22.30;52.90;;;;;;4873982;28;45387;-63
2022/10/18 09:33:01;;;;;;;;;;;22.30;52.80;;;;;;4889607;28;46041;-66
2022/10/18 09:35:28;;;;;;;;;;;22.30;52.80;;;;;;4918090;28;46390;-68
2022/10/18 09:37:54;;;;;;;;;;;22.40;52.90;;;;;;4900749;28;45349;-64
2022/10/18 09:40:23;;;;;;;;;;;22.40;53.40;;;;;;4898449;28;45131;-64
2022/10/18 09:43:05;;;;;;;;;;;22.40;52.80;;;;;;4900028;28;45401;-69
2022/10/18 09:45:32;;;;;;;;;;;22.40;52.80;;;;;;4896428;28;47127;-66
2022/10/18 09:48:07;;;;;;;;;;;22.40;52.80;;;;;;4897554;28;45496;-66
2022/10/18 09:50:37;;;;;;;;;;;22.40;52.80;;;;;;4893458;28;45294;-65
2022/10/18 09:53:10;;;;;;;;;;;22.40;52.80;;;;;;4901483;28;45823;-70
2022/10/18 09:55:37;;;;;;;;;;;22.40;52.80;;;;;;4914766;28;46116;-66
2022/10/18 09:58:04;;;;;;;;;;;22.50;52.80;;;;;;4900834;28;44586;-67
2022/10/18 10:00:34;;;;;;;;;;;22.50;52.80;;;;;;4899310;28;45375;-69
2022/10/18 10:03:00;;;;;;;;;;;22.50;52.90;;;;;;4900179;28;45226;-66
2022/10/18 10:05:25;;;;;;;;;;;22.50;52.80;;;;;;4893809;28;46171;-65
2022/10/18 10:07:57;;;;;;;;;;;22.50;52.80;;;;;;4901159;28;45021;-63
2022/10/18 10:10:23;;;;;;;;;;;22.50;52.80;;;;;;4910705;28;45284;-65
2022/10/18 10:13:01;;;;;;;;;;;22.50;52.80;;;;;;4882157;28;45489;-64
2022/10/18 10:15:27;;;;;;;;;;;22.50;52.80;;;;;;4889162;28;45241;-65
2022/10/18 10:17:56;;;;;;;;;;;22.50;52.80;;;;;;4921109;28;44980;-62
2022/10/18 10:20:22;;;;;;;;;;;22.50;53.40;;;;;;4913205;28;45486;-63
2022/10/18 10:22:47;;;;;;;;;;;22.50;52.90;;;;;;4902250;28;45181;-65
2022/10/18 10:25:20;;;;;;;;;;;22.50;52.80;;;;;;4901069;28;45251;-63
2022/10/18 10:27:45;;;;;;;;;;;22.50;52.80;;;;;;4917413;28;45268;-66
2022/10/18 10:30:19;;;;;;;;;;;22.50;52.90;;;;;;4900671;28;45277;-65
2022/10/18 10:32:46;;;;;;;;;;;22.50;52.80;;;;;;4913518;28;45665;-63
2022/10/18 10:35:18;;;;;;;;;;;22.50;52.80;;;;;;4906720;28;46158;-66
2022/10/18 10:37:44;;;;;;;;;;;22.50;52.90;;;;;;4899893;28;44982;-62
2022/10/18 10:40:10;;;;;;;;;;;22.50;52.80;;;;;;4899036;28;44858;-68
2022/10/18 10:42:50;;;;;;;;;;;22.50;52.90;;;;;;4914366;28;45448;-64
2022/10/18 10:45:15;;;;;;;;;;;22.50;52.90;;;;;;4918756;28;45921;-64
2022/10/18 10:47:41;;;;;;;;;;;22.50;52.90;;;;;;4920085;28;45166;-62
2022/10/18 10:50:10;;;;;;;;;;;22.50;52.90;;;;;;4913309;28;45706;-63
2022/10/18 10:52:36;;;;;;;;;;;22.50;52.90;;;;;;4900672;28;45436;-65
2022/10/18 10:55:02;;;;;;;;;;;22.50;52.90;;;;;;4902072;28;45731;-64
2022/10/18 10:57:27;;;;;;;;;;;22.50;52.90;;;;;;4915913;28;45342;-66
2022/10/18 10:59:54;;;;;;;;;;;22.50;52.90;;;;;;4916343;28;45405;-64
2022/10/18 11:02:28;;;;;;;;;;;22.50;52.90;;;;;;4922031;28;45417;-67
2022/10/18 11:04:54;;;;;;;;;;;22.50;52.80;;;;;;4922630;28;46264;-66
2022/10/18 11:07:26;;;;;;;;;;;22.50;52.80;;;;;;4921752;28;45272;-64
2022/10/18 11:10:11;;;;;;;;;;;22.50;52.70;;;;;;4921283;28;45582;-66
2022/10/18 11:12:40;;;;;;;;;;;22.50;52.80;;;;;;4890649;28;44694;-66
2022/10/18 11:15:10;;;;;;;;;;;22.50;52.80;;;;;;4898494;28;46010;-66
2022/10/18 11:17:39;;;;;;;;;;;22.50;52.80;;;;;;4922783;28;45244;-64
2022/10/18 11:20:09;;;;;;;;;;;22.50;52.80;;;;;;4907505;28;45228;-67
2022/10/18 11:22:49;;;;;;;;;;;22.60;52.90;;;;;;4905063;28;45226;-64
2022/10/18 11:25:15;;;;;;;;;;;22.60;52.80;;;;;;4906798;28;46074;-67
2022/10/18 11:27:42;;;;;;;;;;;22.60;52.80;;;;;;4913658;28;45429;-64
2022/10/18 11:30:25;;;;;;;;;;;22.60;52.80;;;;;;4918224;28;44781;-64
2022/10/18 11:32:54;;;;;;;;;;;22.60;52.80;;;;;;4900165;28;45305;-64
2022/10/18 11:35:26;;;;;;;;;;;22.60;52.80;;;;;;4903144;28;45437;-65
2022/10/18 11:37:58;;;;;;;;;;;22.70;52.80;;;;;;4905610;28;44775;-67
2022/10/18 11:40:30;;;;;;;;;;;22.60;52.80;;;;;;4921999;28;45319;-66
2022/10/18 11:42:58;;;;;;;;;;;22.70;52.90;;;;;;4920077;28;45276;-64
2022/10/18 11:45:27;;;;;;;;;;;22.60;52.90;;;;;;4921359;28;46154;-63
2022/10/18 11:48:04;;;;;;;;;;;22.60;52.90;;;;;;4905625;28;45416;-65
2022/10/18 11:50:33;;;;;;;;;;;22.70;52.90;;;;;;4911105;28;45241;-64
2022/10/18 11:53:03;;;;;;;;;;;22.70;52.90;;;;;;4927295;28;45975;-65
2022/10/18 11:55:37;;;;;;;;;;;22.70;52.90;;;;;;4905993;28;45056;-63
2022/10/18 11:58:05;;;;;;;;;;;22.70;52.90;;;;;;4904870;28;45227;-66
2022/10/18 12:00:38;;;;;;;;;;;22.70;52.90;;;;;;4915483;28;45231;-68
2022/10/18 12:03:22;;;;;;;;;;;22.70;52.90;;;;;;4919175;28;45499;-65
2022/10/18 12:05:48;;;;;;;;;;;22.70;52.90;;;;;;4916509;28;46558;-64
2022/10/18 12:08:15;;;;;;;;;;;22.70;52.90;;;;;;4904633;28;45352;-65
2022/10/18 12:10:41;;;;;;;;;;;22.70;52.90;;;;;;4907928;28;45258;-65
2022/10/18 12:13:07;;;;;;;;;;;22.70;53.00;;;;;;4922130;28;45522;-66
2022/10/18 12:15:34;;;;;;;;;;;22.70;53.20;;;;;;4905419;28;45969;-66
2022/10/18 12:18:00;;;;;;;;;;;22.70;52.90;;;;;;4902259;28;44587;-64
2022/10/18 12:20:27;;;;;;;;;;;22.70;52.90;;;;;;4905125;28;44984;-64
2022/10/18 12:23:01;;;;;;;;;;;22.70;52.90;;;;;;4904351;28;45605;-66
2022/10/18 12:25:27;;;;;;;;;;;22.70;52.90;;;;;;4906824;28;47008;-66
2022/10/18 12:28:11;;;;;;;;;;;22.80;52.90;;;;;;4898851;28;45360;-64
2022/10/18 12:30:36;;;;;;;;;;;22.70;52.90;;;;;;4918201;28;45435;-66
2022/10/18 12:33:12;;;;;;;;;;;22.80;53.00;;;;;;4921580;28;45369;-64
2022/10/18 12:35:42;;;;;;;;;;;22.80;53.00;;;;;;4909296;28;45288;-68
2022/10/18 12:38:15;;;;;;;;;;;22.80;52.90;;;;;;4907298;28;45417;-65
2022/10/18 12:40:41;;;;;;;;;;;22.80;52.90;;;;;;4896713;28;44898;-67
2022/10/18 12:43:17;;;;;;;;;;;22.80;52.90;;;;;;4917976;28;45175;-64
2022/10/18 12:45:47;;;;;;;;;;;22.80;52.90;;;;;;4899691;28;46182;-64
2022/10/18 12:48:14;;;;;;;;;;;22.80;52.90;;;;;;4904896;28;45203;-65
2022/10/18 12:50:41;;;;;;;;;;;22.80;52.80;;;;;;4903806;28;45091;-63
2022/10/18 12:53:14;;;;;;;;;;;22.80;52.90;;;;;;4908329;28;45125;-64
2022/10/18 12:55:47;;;;;;;;;;;22.80;52.80;;;;;;4919851;28;47012;-65
2022/10/18 12:58:12;;;;;;;;;;;22.80;52.90;;;;;;4917065;28;45276;-65
2022/10/18 13:00:40;;;;;;;;;;;22.90;52.90;;;;;;4922731;28;45291;-64
2022/10/18 13:03:08;;;;;;;;;;;22.80;52.80;;;;;;4919074;28;44720;-65
2022/10/18 13:05:46;;;;;;;;;;;22.90;52.90;;;;;;4919636;28;45883;-66
2022/10/18 13:08:26;;;;;;;;;;;22.80;52.90;;;;;;4921680;28;45209;-65
2022/10/18 13:11:07;;;;;;;;;;;22.90;52.90;;;;;;4922906;28;45270;-67
2022/10/18 13:13:45;;;;;;;;;;;22.90;52.80;;;;;;4915959;28;45340;-67
2022/10/18 13:16:29;;;;;;;;;;;22.90;52.80;;;;;;4919752;28;46354;-64
2022/10/18 13:19:13;;;;;;;;;;;22.90;52.80;;;;;;4920057;28;45145;-69
2022/10/18 13:21:38;;;;;;;;;;;22.90;52.80;;;;;;4914526;28;45233;-64
2022/10/18 13:24:08;;;;;;;;;;;22.90;52.80;;;;;;4922154;28;45260;-66
2022/10/18 13:26:34;;;;;;;;;;;22.90;52.80;;;;;;4904205;28;46203;-64
2022/10/18 13:29:13;;;;;;;;;;;22.90;52.90;;;;;;4921114;28;45135;-65
2022/10/18 13:31:43;;;;;;;;;;;22.90;52.90;;;;;;4904211;28;45762;-64
2022/10/18 13:34:19;;;;;;;;;;;22.90;52.80;;;;;;4916417;28;45207;-63
2022/10/18 13:36:53;;;;;;;;;;;22.90;52.80;;;;;;4928040;28;45900;-63
2022/10/18 13:39:19;;;;;;;;;;;22.90;52.80;;;;;;4920882;28;44657;-64
2022/10/18 13:41:44;;;;;;;;;;;22.90;52.80;;;;;;4898454;28;45530;-67
2022/10/18 13:44:30;;;;;;;;;;;22.90;52.70;;;;;;4919846;28;45281;-63
2022/10/18 13:46:56;;;;;;;;;;;22.90;52.80;;;;;;4919144;28;46031;-62
2022/10/18 13:49:21;;;;;;;;;;;22.90;52.80;;;;;;4921495;28;45419;-64
2022/10/18 13:51:46;;;;;;;;;;;22.90;52.70;;;;;;4910463;28;45027;-65
2022/10/18 13:54:20;;;;;;;;;;;22.90;52.70;;;;;;4915518;28;45567;-63
2022/10/18 13:57:05;;;;;;;;;;;22.90;52.80;;;;;;4904606;28;45199;-63
2022/10/18 13:59:33;;;;;;;;;;;22.90;52.90;;;;;;4920999;28;45556;-62
2022/10/18 14:02:11;;;;;;;;;;;23.00;52.90;;;;;;4899489;28;45350;-61
2022/10/18 14:04:38;;;;;;;;;;;22.90;52.90;;;;;;4919357;28;44996;-62
2022/10/18 14:07:04;;;;;;;;;;;23.00;52.90;;;;;;4902100;28;46086;-62
2022/10/18 14:09:32;;;;;;;;;;;23.00;52.90;;;;;;4920928;28;44896;-62
2022/10/18 14:11:58;;;;;;;;;;;23.00;52.90;;;;;;4915961;28;46510;-63
2022/10/18 14:14:42;;;;;;;;;;;23.00;52.90;;;;;;4913652;28;45346;-63
2022/10/18 14:17:26;;;;;;;;;;;23.00;52.90;;;;;;4895079;28;46035;-63
2022/10/18 14:19:53;;;;;;;;;;;23.00;52.80;;;;;;4897154;28;45221;-64
2022/10/18 14:22:23;;;;;;;;;;;23.00;52.90;;;;;;4918722;28;45477;-64
2022/10/18 14:24:50;;;;;;;;;;;23.00;52.90;;;;;;4919238;28;44678;-64
2022/10/18 14:27:18;;;;;;;;;;;23.10;52.90;;;;;;4896114;28;45877;-63
2022/10/18 14:29:44;;;;;;;;;;;23.00;52.80;;;;;;4919477;28;45288;-63
2022/10/18 14:32:13;;;;;;;;;;;23.00;52.80;;;;;;4897409;28;45255;-63
2022/10/18 14:34:41;;;;;;;;;;;23.00;52.80;;;;;;4901841;28;45347;-62
2022/10/18 14:37:06;;;;;;;;;;;23.00;52.70;;;;;;4900062;28;45003;-63
2022/10/18 14:39:32;;;;;;;;;;;23.10;53.00;;;;;;4899520;28;44876;-62
2022/10/18 14:41:57;;;;;;;;;;;23.10;52.80;;;;;;4905696;28;44801;-63
2022/10/18 14:44:24;;;;;;;;;;;23.10;52.80;;;;;;4924971;28;44631;-62
2022/10/18 14:47:01;;;;;;;;;;;23.10;52.80;;;;;;4915965;28;45053;-63
2022/10/18 14:49:27;;;;;;;;;;;23.10;52.80;;;;;;4916266;28;45180;-62
2022/10/18 14:51:53;;;;;;;;;;;23.10;52.70;;;;;;4901346;28;46923;-62
2022/10/18 14:54:24;;;;;;;;;;;23.10;52.80;;;;;;4905162;28;45570;-63
2022/10/18 14:56:49;;;;;;;;;;;23.10;52.70;;;;;;4920073;28;45703;-62
2022/10/18 14:59:25;;;;;;;;;;;23.10;52.70;;;;;;4902423;28;45603;-63
2022/10/18 15:01:52;;;;;;;;;;;23.10;52.80;;;;;;4914534;28;44992;-60
2022/10/18 15:04:18;;;;;;;;;;;23.10;52.70;;;;;;4900305;28;45555;-62
2022/10/18 15:06:43;;;;;;;;;;;23.10;52.70;;;;;;4914931;28;46075;-61
2022/10/18 15:09:10;;;;;;;;;;;23.10;52.70;;;;;;4911484;28;44795;-61
2022/10/18 15:11:35;;;;;;;;;;;23.10;52.70;;;;;;4903192;28;45711;-62
2022/10/18 15:14:02;;;;;;;;;;;23.10;52.80;;;;;;4920330;28;45208;-62
2022/10/18 15:16:28;;;;;;;;;;;23.10;52.80;;;;;;4882857;28;45852;-62
2022/10/18 15:18:59;;;;;;;;;;;23.10;52.70;;;;;;4896525;28;45404;-61
2022/10/18 15:21:25;;;;;;;;;;;23.10;52.70;;;;;;4910652;28;44990;-62
2022/10/18 15:23:50;;;;;;;;;;;23.10;52.80;;;;;;4915480;28;44786;-62
2022/10/18 15:26:20;;;;;;;;;;;23.10;52.90;;;;;;4897529;28;46030;-62
2022/10/18 15:28:51;;;;;;;;;;;23.10;53.00;;;;;;4898501;28;45165;-62
2022/10/18 15:31:24;;;;;;;;;;;23.10;53.00;;;;;;4904544;28;45486;-62
2022/10/18 15:33:49;;;;;;;;;;;23.00;52.90;;;;;;4920552;28;45314;-61
2022/10/18 15:36:28;;;;;;;;;;;23.00;53.00;;;;;;4919524;28;45344;-62
2022/10/18 15:39:23;;;;;;;;;;;23.00;53.10;;;;;;4903624;28;45301;-62
2022/10/18 15:41:52;;;;;;;;;;;23.00;53.10;;;;;;4909811;28;45720;-62
2022/10/18 15:44:18;;;;;;;;;;;23.00;53.10;;;;;;4923000;28;44779;-62
2022/10/18 15:46:46;;;;;;;;;;;23.00;53.10;;;;;;4923184;28;46242;-61
2022/10/18 15:49:30;;;;;;;;;;;23.00;53.10;;;;;;4923532;28;45128;-62
2022/10/18 15:52:02;;;;;;;;;;;23.00;53.10;;;;;;4903831;28;45384;-62
2022/10/18 15:54:30;;;;;;;;;;;23.00;53.10;;;;;;4924645;28;45693;-62
2022/10/18 15:56:56;;;;;;;;;;;22.90;53.10;;;;;;4925690;28;46325;-62
2022/10/18 15:59:24;;;;;;;;;;;22.90;53.00;;;;;;4919026;28;45307;-60
2022/10/18 16:01:50;;;;;;;;;;;22.90;53.00;;;;;;4912466;28;45711;-62
2022/10/18 16:04:19;;;;;;;;;;;22.90;53.00;;;;;;4916472;28;45358;-61
2022/10/18 16:06:45;;;;;;;;;;;22.90;53.10;;;;;;4900242;28;46155;-62
2022/10/18 16:09:11;;;;;;;;;;;22.90;53.10;;;;;;4921994;28;45038;-61
2022/10/18 16:11:37;;;;;;;;;;;22.90;53.10;;;;;;4902270;28;45278;-61
2022/10/18 16:14:03;;;;;;;;;;;22.90;53.10;;;;;;4920484;28;45194;-61
2022/10/18 16:16:28;;;;;;;;;;;22.90;53.10;;;;;;4909705;28;46036;-61
2022/10/18 16:18:54;;;;;;;;;;;22.90;53.20;;;;;;4905561;28;44623;-61
2022/10/18 16:21:38;;;;;;;;;;;22.90;53.20;;;;;;4913765;28;45297;-61
2022/10/18 16:24:03;;;;;;;;;;;22.80;53.20;;;;;;4915947;28;45294;-61
2022/10/18 16:26:29;;;;;;;;;;;22.80;53.20;;;;;;4926862;28;45853;-61
2022/10/18 16:28:55;;;;;;;;;;;22.80;53.20;;;;;;4915629;28;44938;-61
2022/10/18 16:31:22;;;;;;;;;;;22.80;53.20;;;;;;4912857;28;45613;-59
2022/10/18 16:33:47;;;;;;;;;;;22.80;53.30;;;;;;4893880;28;45379;-61
2022/10/18 16:36:17;;;;;;;;;;;22.80;53.80;;;;;;4912747;28;45623;-61
2022/10/18 16:38:42;;;;;;;;;;;22.80;53.30;;;;;;4903930;28;45577;-62
2022/10/18 16:41:08;;;;;;;;;;;22.80;53.30;;;;;;4897591;28;45037;-61
2022/10/18 16:43:34;;;;;;;;;;;22.70;53.60;;;;;;4916720;28;45565;-60
2022/10/18 16:45:59;;;;;;;;;;;22.70;53.30;;;;;;4901927;28;47134;-60
2022/10/18 16:48:25;;;;;;;;;;;22.70;53.20;;;;;;4914560;28;45426;-61
2022/10/18 16:50:51;;;;;;;;;;;22.70;53.30;;;;;;4914288;28;45380;-60
2022/10/18 16:53:21;;;;;;;;;;;22.70;53.30;;;;;;4894691;28;44983;-62
2022/10/18 16:55:49;;;;;;;;;;;22.70;53.30;;;;;;4918296;28;46206;-61
2022/10/18 16:58:16;;;;;;;;;;;22.70;53.30;;;;;;4913019;28;45406;-62
2022/10/18 17:00:42;;;;;;;;;;;22.70;53.30;;;;;;4910188;28;44854;-62
2022/10/18 17:03:08;;;;;;;;;;;22.70;53.30;;;;;;4892332;28;44823;-62
2022/10/18 17:05:33;;;;;;;;;;;22.70;53.30;;;;;;4914454;28;45251;-60
2022/10/18 17:07:59;;;;;;;;;;;22.70;53.30;;;;;;4916237;28;44737;-62
2022/10/18 17:10:26;;;;;;;;;;;22.70;53.30;;;;;;4916466;28;44843;-62
2022/10/18 17:12:56;;;;;;;;;;;22.70;53.30;;;;;;4893549;28;45943;-61
2022/10/18 17:15:22;;;;;;;;;;;22.70;53.30;;;;;;4913811;28;46177;-61
2022/10/18 17:17:48;;;;;;;;;;;22.60;53.40;;;;;;4914716;28;45411;-62
2022/10/18 17:20:19;;;;;;;;;;;22.60;53.40;;;;;;4915021;28;45319;-62
2022/10/18 17:22:44;;;;;;;;;;;22.60;53.40;;;;;;4912468;28;46064;-63